Time;durP1;ratioP1;P1;durP2;ratioP2;P2;SDS_P1;SDS_P2;PMS_P1;PMS_P2;Temp;Humidity;BMP_temperature;BMP_pressure;BME280_temperature;BME280_humidity;BME280_pressure;Samples;Min_cycle;Max_cycle;Signal;HPM_P1;HPM_P2
2023/01/14 00:01:44;;;;;;;19.57;4.00;;;7.30;99.90;;;;;;4995380;28;20481;-82
2023/01/14 00:04:10;;;;;;;21.60;4.87;;;7.30;99.90;;;;;;5033616;28;20041;-82
2023/01/14 00:06:36;;;;;;;13.30;3.60;;;7.30;99.90;;;;;;5028090;28;20044;-84
2023/01/14 00:09:08;;;;;;;13.47;3.57;;;7.30;99.90;;;;;;5035661;28;20033;-82
2023/01/14 00:11:46;;;;;;;16.95;3.63;;;7.40;99.90;;;;;;5034857;28;20053;-81
2023/01/14 00:14:15;;;;;;;13.13;3.40;;;7.40;99.90;;;;;;5029236;28;20037;-82
2023/01/14 00:16:41;;;;;;;16.17;3.80;;;7.40;99.90;;;;;;5032535;28;20515;-82
2023/01/14 00:19:07;;;;;;;17.93;3.63;;;7.40;99.90;;;;;;5037808;28;20048;-83
2023/01/14 00:21:33;;;;;;;17.40;4.20;;;7.40;99.90;;;;;;5035981;28;20119;-83
2023/01/14 00:23:59;;;;;;;13.17;3.67;;;7.40;99.90;;;;;;5033474;28;20125;-82
2023/01/14 00:26:25;;;;;;;18.77;4.00;;;7.40;99.90;;;;;;5031447;28;20063;-82
2023/01/14 00:28:51;;;;;;;12.87;3.50;;;7.40;99.90;;;;;;5016160;28;20045;-83
2023/01/14 00:31:24;;;;;;;12.37;3.40;;;7.40;99.90;;;;;;5018453;28;20032;-84
2023/01/14 00:33:50;;;;;;;16.27;3.80;;;7.40;99.90;;;;;;5031919;28;20124;-82
2023/01/14 00:36:18;;;;;;;16.60;4.17;;;7.40;99.90;;;;;;5034975;28;20460;-83
2023/01/14 00:38:44;;;;;;;11.90;3.10;;;7.40;99.90;;;;;;5017149;28;20036;-83
2023/01/14 00:41:20;;;;;;;14.10;3.33;;;7.40;99.90;;;;;;5025176;28;20040;-83
2023/01/14 00:43:48;;;;;;;17.83;3.73;;;7.30;99.90;;;;;;5019191;28;20051;-83
2023/01/14 00:46:16;;;;;;;18.80;3.90;;;7.30;99.90;;;;;;5018197;28;20119;-83
2023/01/14 00:48:43;;;;;;;14.40;3.90;;;7.30;99.90;;;;;;5019308;28;20451;-83
2023/01/14 00:51:10;;;;;;;20.90;3.97;;;7.30;99.90;;;;;;5024586;28;20393;-83
2023/01/14 00:53:36;;;;;;;17.60;4.10;;;7.30;99.90;;;;;;5001141;28;20037;-83
2023/01/14 00:56:03;;;;;;;17.03;4.07;;;7.20;99.90;;;;;;5033104;28;20039;-83
2023/01/14 00:58:28;;;;;;;17.23;3.70;;;7.20;99.90;;;;;;5015047;28;20055;-83
2023/01/14 01:00:54;;;;;;;14.13;3.43;;;7.20;99.90;;;;;;5033855;28;20120;-84
2023/01/14 01:03:21;;;;;;;13.73;3.50;;;7.20;99.90;;;;;;5044541;28;20132;-84
2023/01/14 01:05:47;;;;;;;13.77;3.50;;;7.20;99.90;;;;;;5014270;28;20045;-83
2023/01/14 01:08:16;;;;;;;17.07;3.50;;;7.20;99.90;;;;;;5014505;28;20559;-83
2023/01/14 01:10:43;;;;;;;10.63;3.70;;;7.10;99.90;;;;;;5030530;28;20063;-83
2023/01/14 01:13:10;;;;;;;13.83;3.60;;;7.10;99.90;;;;;;5024127;28;20513;-83
2023/01/14 01:15:37;;;;;;;15.47;3.70;;;7.10;99.90;;;;;;5014285;28;20045;-84
2023/01/14 01:18:04;;;;;;;16.27;3.63;;;7.10;99.90;;;;;;5031500;28;20366;-83
2023/01/14 01:20:30;;;;;;;18.07;4.07;;;7.10;99.90;;;;;;5034110;28;20538;-84
2023/01/14 01:22:56;;;;;;;15.53;3.37;;;7.10;99.90;;;;;;5034081;28;20389;-84
2023/01/14 01:25:22;;;;;;;15.40;3.60;;;7.10;99.90;;;;;;5044642;28;20154;-83
2023/01/14 01:27:48;;;;;;;15.23;3.90;;;7.00;99.90;;;;;;5033583;28;20874;-83
2023/01/14 01:30:14;;;;;;;14.20;3.40;;;7.00;99.90;;;;;;5002091;28;20033;-83
2023/01/14 01:32:39;;;;;;;15.53;3.57;;;7.10;99.90;;;;;;5037368;28;20183;-84
2023/01/14 01:35:06;;;;;;;12.43;3.60;;;7.10;99.90;;;;;;5011420;28;20049;-83
2023/01/14 01:37:32;;;;;;;13.70;4.20;;;7.10;99.90;;;;;;5033503;28;20045;-84
2023/01/14 01:39:58;;;;;;;16.40;3.93;;;7.00;99.90;;;;;;5033807;28;20049;-83
2023/01/14 01:42:28;;;;;;;17.30;4.00;;;7.00;99.90;;;;;;5017374;28;20109;-84
2023/01/14 01:44:53;;;;;;;17.00;3.67;;;7.00;99.90;;;;;;5016991;28;20044;-84
2023/01/14 01:47:21;;;;;;;12.40;3.27;;;7.00;99.90;;;;;;5019059;28;20041;-83
2023/01/14 01:49:47;;;;;;;13.37;3.60;;;7.00;99.90;;;;;;5017057;28;20029;-83
2023/01/14 01:52:29;;;;;;;22.67;4.20;;;7.00;99.90;;;;;;5033842;28;20045;-84
2023/01/14 01:55:01;;;;;;;17.08;3.95;;;7.00;99.90;;;;;;5009957;28;20041;-84
2023/01/14 01:57:27;;;;;;;14.40;4.07;;;7.00;99.90;;;;;;5037689;28;20400;-84
2023/01/14 01:59:57;;;;;;;16.97;2.97;;;7.00;99.90;;;;;;5033472;28;20045;-85
2023/01/14 02:02:25;;;;;;;13.83;3.73;;;7.10;99.90;;;;;;5033376;28;20120;-85
2023/01/14 02:04:51;;;;;;;21.00;3.30;;;7.10;99.90;;;;;;5036669;28;20142;-85
2023/01/14 02:07:23;;;;;;;12.30;3.33;;;7.10;99.90;;;;;;5023194;28;20072;-83
2023/01/14 02:09:57;;;;;;;17.38;3.53;;;7.10;99.90;;;;;;5022363;28;20056;-84
2023/01/14 02:12:36;;;;;;;11.50;3.10;;;7.10;99.90;;;;;;5053472;28;20051;-85
2023/01/14 02:15:35;;;;;;;14.67;3.63;;;7.10;99.90;;;;;;5036217;28;20081;-85
2023/01/14 02:18:03;;;;;;;12.30;3.00;;;7.10;99.90;;;;;;5003193;28;20158;-85
2023/01/14 02:20:46;;;;;;;15.63;3.77;;;7.20;99.90;;;;;;5041996;28;20527;-85
2023/01/14 02:23:31;;;;;;;12.87;3.10;;;7.20;99.90;;;;;;5018798;28;20094;-85
2023/01/14 02:26:31;;;;;;;12.20;3.70;;;7.20;99.90;;;;;;5027393;28;20045;-85
2023/01/14 02:28:57;;;;;;;12.80;3.40;;;7.10;99.90;;;;;;5020810;28;20079;-85
2023/01/14 02:31:34;;;;;;;17.03;3.97;;;7.20;99.90;;;;;;5037146;28;20076;-85
2023/01/14 02:34:14;;;;;;;18.47;3.90;;;7.20;99.90;;;;;;5020132;28;20041;-84
2023/01/14 02:37:16;;;;;;;12.70;3.30;;;7.20;99.90;;;;;;5022948;28;20120;-85
2023/01/14 02:39:57;;;;;;;15.77;3.58;;;7.20;99.90;;;;;;5019259;28;20037;-83
2023/01/14 02:45:16;;;;;;;19.30;4.03;;;7.10;99.90;;;;;;5033318;28;20405;-84
2023/01/14 02:47:44;;;;;;;14.27;3.30;;;7.20;99.90;;;;;;5000241;28;20048;-85
2023/01/14 02:50:12;;;;;;;15.27;3.63;;;7.20;99.90;;;;;;5013044;28;20045;-86
2023/01/14 02:52:38;;;;;;;12.93;3.30;;;7.20;99.90;;;;;;5036519;28;20488;-85
2023/01/14 02:55:28;;;;;;;20.50;3.50;;;7.20;99.90;;;;;;4993075;28;20056;-85
2023/01/14 02:58:30;;;;;;;21.37;4.20;;;7.20;99.90;;;;;;5023731;28;20045;-85
2023/01/14 03:01:12;;;;;;;14.18;3.33;;;7.20;99.90;;;;;;5017380;28;20033;-84
2023/01/14 03:04:02;;;;;;;20.98;3.75;;;7.20;99.90;;;;;;5028839;28;20123;-86
2023/01/14 03:06:44;;;;;;;12.27;3.93;;;7.20;99.90;;;;;;5037961;28;20037;-84
2023/01/14 03:09:27;;;;;;;15.18;3.47;;;7.20;99.90;;;;;;5029800;28;20040;-86
2023/01/14 03:12:01;;;;;;;15.10;3.30;;;7.20;99.90;;;;;;5029759;28;20424;-85
2023/01/14 03:14:59;;;;;;;17.10;4.20;;;7.20;99.90;;;;;;5034900;28;20075;-86
2023/01/14 03:17:40;;;;;;;15.50;3.30;;;7.10;99.90;;;;;;5011846;28;20053;-85
2023/01/14 03:20:11;;;;;;;14.13;3.53;;;7.00;99.90;;;;;;5033951;28;20048;-85
2023/01/14 03:22:40;;;;;;;20.90;3.97;;;7.00;99.90;;;;;;5042101;28;20037;-85
2023/01/14 03:25:08;;;;;;;17.50;3.47;;;7.00;99.90;;;;;;5046545;28;20044;-86
2023/01/14 03:27:36;;;;;;;15.63;3.60;;;6.90;99.90;;;;;;5019652;28;20049;-86
2023/01/14 03:30:10;;;;;;;15.27;2.97;;;6.90;99.90;;;;;;5052086;28;20115;-86
2023/01/14 03:32:41;;;;;;;19.20;3.87;;;6.90;99.90;;;;;;5023949;28;20045;-86
2023/01/14 03:35:16;;;;;;;14.57;3.80;;;6.80;99.90;;;;;;5046396;28;20041;-85
2023/01/14 03:37:47;;;;;;;19.03;3.83;;;6.80;99.90;;;;;;5026848;28;20389;-86
2023/01/14 03:40:16;;;;;;;16.70;3.35;;;6.70;99.90;;;;;;5013524;28;20429;-85
2023/01/14 03:42:47;;;;;;;22.40;3.80;;;6.70;99.90;;;;;;5015809;28;20037;-86
2023/01/14 03:45:19;;;;;;;18.00;3.60;;;6.60;99.90;;;;;;5034528;28;20086;-86
2023/01/14 03:47:45;;;;;;;16.10;3.63;;;6.60;99.90;;;;;;5040233;28;20459;-86
2023/01/14 03:50:14;;;;;;;17.17;3.60;;;6.60;99.90;;;;;;5002290;28;20119;-86
2023/01/14 03:52:47;;;;;;;13.30;3.67;;;6.50;99.90;;;;;;5045355;28;20084;-85
2023/01/14 03:55:28;;;;;;;14.30;3.70;;;6.50;99.90;;;;;;5045481;28;20161;-86
2023/01/14 03:58:00;;;;;;;14.27;3.90;;;6.40;99.90;;;;;;5035161;28;20048;-84
2023/01/14 04:00:44;;;;;;;21.10;4.07;;;6.40;99.90;;;;;;5034855;28;20059;-86
2023/01/14 04:03:12;;;;;;;15.97;3.53;;;6.40;99.90;;;;;;5045934;28;20041;-85
2023/01/14 04:05:39;;;;;;;18.07;4.43;;;6.30;99.90;;;;;;5034758;28;20041;-86
2023/01/14 04:08:06;;;;;;;17.63;3.43;;;6.40;99.90;;;;;;5051654;28;20040;-86
2023/01/14 04:10:33;;;;;;;18.27;4.03;;;6.30;99.90;;;;;;5044841;28;20060;-86
2023/01/14 04:15:43;;;;;;;17.03;3.27;;;6.40;99.90;;;;;;5021463;28;20047;-85
2023/01/14 04:18:09;;;;;;;13.13;3.43;;;6.40;99.90;;;;;;5044937;28;20678;-86
2023/01/14 04:20:35;;;;;;;13.50;3.30;;;6.40;99.90;;;;;;5035273;28;20048;-86
2023/01/14 04:23:00;;;;;;;15.77;3.63;;;6.30;99.90;;;;;;5001820;28;20103;-84
2023/01/14 04:25:26;;;;;;;18.53;3.83;;;6.30;99.90;;;;;;5002116;28;20486;-86
2023/01/14 04:27:52;;;;;;;15.17;3.27;;;6.30;99.90;;;;;;5051167;28;20033;-85
2023/01/14 04:30:18;;;;;;;12.20;3.37;;;6.30;99.90;;;;;;5051091;28;20106;-85
2023/01/14 04:32:43;;;;;;;16.13;3.70;;;6.30;99.90;;;;;;5018088;28;20063;-86
2023/01/14 04:35:09;;;;;;;14.40;4.00;;;6.30;99.90;;;;;;5031802;28;20052;-87
2023/01/14 04:37:35;;;;;;;18.97;3.50;;;6.30;99.90;;;;;;5010974;28;20048;-86
2023/01/14 04:40:01;;;;;;;14.43;3.43;;;6.30;99.90;;;;;;5018917;28;20040;-87
2023/01/14 04:42:27;;;;;;;16.77;3.30;;;6.20;99.90;;;;;;5035190;28;20041;-87
2023/01/14 04:44:57;;;;;;;13.83;3.40;;;6.20;99.90;;;;;;5023445;28;20059;-87
2023/01/14 04:47:24;;;;;;;12.37;3.00;;;6.20;99.90;;;;;;5044059;28;20576;-86
2023/01/14 04:49:50;;;;;;;13.17;3.30;;;6.10;99.90;;;;;;5050712;28;20464;-88
2023/01/14 04:52:16;;;;;;;15.93;3.43;;;6.10;99.90;;;;;;5032729;28;20053;-88
2023/01/14 04:54:42;;;;;;;13.60;3.30;;;6.10;99.90;;;;;;5051608;28;20043;-87
2023/01/14 04:57:08;;;;;;;13.97;3.57;;;6.10;99.90;;;;;;5018845;28;20037;-87
2023/01/14 04:59:34;;;;;;;15.90;3.70;;;6.10;99.90;;;;;;5035741;28;20037;-86
2023/01/14 05:02:00;;;;;;;15.67;3.60;;;6.10;99.90;;;;;;5035483;28;20098;-87
2023/01/14 05:04:26;;;;;;;16.93;4.43;;;6.00;99.90;;;;;;5032033;28;20037;-88
2023/01/14 05:06:54;;;;;;;19.97;4.13;;;6.00;99.90;;;;;;5022633;28;20065;-87
2023/01/14 05:09:19;;;;;;;18.40;4.17;;;6.00;99.90;;;;;;5039783;28;20092;-87
2023/01/14 05:11:45;;;;;;;15.33;4.33;;;6.00;99.90;;;;;;5018971;28;20069;-86
2023/01/14 05:14:11;;;;;;;18.57;4.17;;;6.00;99.90;;;;;;5019667;28;20047;-87
2023/01/14 05:16:37;;;;;;;20.57;4.83;;;6.00;99.90;;;;;;5018695;28;20041;-86
2023/01/14 05:19:03;;;;;;;15.50;4.40;;;6.00;99.90;;;;;;5029252;28;20130;-86
2023/01/14 05:21:29;;;;;;;18.77;4.40;;;6.00;99.90;;;;;;5018776;28;20068;-87
2023/01/14 05:23:55;;;;;;;18.53;4.53;;;6.00;99.90;;;;;;5027212;28;20048;-86
2023/01/14 05:26:21;;;;;;;19.27;4.33;;;6.00;99.90;;;;;;5018741;28;20033;-87
2023/01/14 05:28:46;;;;;;;16.67;4.20;;;6.00;99.90;;;;;;5051397;28;20047;-86
2023/01/14 05:31:12;;;;;;;21.70;4.53;;;6.00;99.90;;;;;;5003354;28;20034;-86
2023/01/14 05:33:38;;;;;;;22.93;5.17;;;6.00;99.90;;;;;;5034700;28;20118;-87
2023/01/14 05:36:05;;;;;;;14.10;4.87;;;6.00;99.90;;;;;;5052328;28;20485;-87
2023/01/14 05:38:31;;;;;;;22.13;4.53;;;6.00;99.90;;;;;;5019868;28;20613;-88
2023/01/14 05:40:56;;;;;;;17.90;4.30;;;6.00;99.90;;;;;;5039129;28;20045;-87
2023/01/14 05:46:17;;;;;;;22.33;4.90;;;5.90;99.90;;;;;;5057007;28;20036;-88
2023/01/14 05:48:43;;;;;;;19.20;4.83;;;6.00;99.90;;;;;;5032027;28;20043;-86
2023/01/14 05:51:12;;;;;;;22.30;5.30;;;6.00;99.90;;;;;;5017083;28;20466;-87
2023/01/14 05:53:38;;;;;;;22.27;5.10;;;5.90;99.90;;;;;;5026794;28;20033;-87
2023/01/14 05:56:04;;;;;;;22.57;5.33;;;6.00;99.90;;;;;;5034818;28;20098;-87
2023/01/14 05:58:29;;;;;;;19.83;5.03;;;5.90;99.90;;;;;;5022036;28;20041;-88
2023/01/14 06:06:43;;;;;;;21.33;6.03;;;6.00;99.90;;;;;;5018748;28;20049;-87
2023/01/14 06:09:13;;;;;;;13.53;5.90;;;6.00;99.90;;;;;;5054058;28;20049;-86
2023/01/14 06:12:01;;;;;;;19.90;6.73;;;6.00;99.90;;;;;;5037678;28;20057;-87
2023/01/14 06:14:31;;;;;;;21.13;7.00;;;5.90;99.90;;;;;;5037597;28;20468;-88
2023/01/14 06:16:57;;;;;;;26.37;7.00;;;5.90;99.90;;;;;;5021288;28;20041;-87
2023/01/14 06:19:24;;;;;;;27.67;7.00;;;5.90;99.90;;;;;;5031899;28;20511;-86
2023/01/14 06:21:49;;;;;;;24.47;7.07;;;5.90;99.90;;;;;;5036987;28;20077;-86
2023/01/14 06:24:15;;;;;;;23.53;7.30;;;5.90;99.90;;;;;;5021491;28;20475;-86
2023/01/14 06:26:41;;;;;;;33.47;8.03;;;5.80;99.90;;;;;;5037418;28;20476;-85
2023/01/14 06:29:09;;;;;;;24.10;7.87;;;5.80;99.90;;;;;;5020955;28;20035;-87
2023/01/14 06:31:36;;;;;;;28.67;7.13;;;5.80;99.90;;;;;;5028928;28;20405;-88
2023/01/14 06:34:02;;;;;;;26.97;7.87;;;5.80;99.90;;;;;;5046864;28;20084;-87
2023/01/14 06:36:29;;;;;;;30.13;6.87;;;5.80;99.90;;;;;;5025697;28;20045;-87
2023/01/14 06:38:55;;;;;;;31.57;7.57;;;5.80;99.90;;;;;;5034575;28;20309;-86
2023/01/14 06:41:20;;;;;;;32.87;8.37;;;5.80;99.90;;;;;;5028070;28;20040;-86
2023/01/14 06:43:46;;;;;;;28.67;6.97;;;5.80;99.90;;;;;;5002851;28;20533;-86
2023/01/14 06:46:14;;;;;;;29.37;7.10;;;5.80;99.90;;;;;;5025081;28;20123;-87
2023/01/14 06:48:41;;;;;;;22.10;6.07;;;5.80;99.90;;;;;;5020706;28;20048;-88
2023/01/14 06:51:11;;;;;;;27.83;7.33;;;5.80;99.90;;;;;;5037126;28;20505;-88
2023/01/14 06:53:37;;;;;;;32.47;7.27;;;5.70;99.90;;;;;;5021042;28;20397;-89
2023/01/14 06:56:06;;;;;;;25.03;6.67;;;5.80;99.90;;;;;;5020151;28;20049;-88
2023/01/14 06:58:32;;;;;;;28.30;7.03;;;5.80;99.90;;;;;;5053265;28;20565;-88
2023/01/14 07:00:59;;;;;;;27.80;7.47;;;5.80;99.90;;;;;;5020677;28;20072;-88
2023/01/14 07:03:25;;;;;;;29.83;6.60;;;5.80;99.90;;;;;;5003296;28;20052;-88
2023/01/14 07:05:52;;;;;;;23.10;6.20;;;5.80;99.90;;;;;;5018427;28;20041;-88
2023/01/14 07:08:18;;;;;;;28.70;6.30;;;5.80;99.90;;;;;;5017127;28;20037;-87
2023/01/14 07:10:49;;;;;;;28.57;7.00;;;5.80;99.90;;;;;;5033642;28;20057;-86
2023/01/14 07:13:15;;;;;;;25.70;6.60;;;5.90;99.90;;;;;;5014750;28;20045;-87
2023/01/14 07:15:42;;;;;;;28.97;7.43;;;5.90;99.90;;;;;;5020294;28;20041;-87
2023/01/14 07:18:08;;;;;;;31.23;7.33;;;5.90;99.90;;;;;;5029646;28;20125;-87
2023/01/14 07:20:34;;;;;;;24.83;6.87;;;5.90;99.90;;;;;;5020052;28;20124;-86
2023/01/14 07:23:03;;;;;;;31.10;7.10;;;5.90;99.90;;;;;;5020891;28;20072;-86
2023/01/14 07:25:29;;;;;;;28.10;7.30;;;5.90;99.90;;;;;;5034518;28;20037;-87
2023/01/14 07:27:55;;;;;;;24.17;6.77;;;5.90;99.90;;;;;;5035304;28;20374;-88
2023/01/14 07:30:21;;;;;;;22.70;6.30;;;6.00;99.90;;;;;;5037494;28;20071;-88
2023/01/14 07:32:47;;;;;;;24.33;6.47;;;6.00;99.90;;;;;;5030139;28;20033;-87
2023/01/14 07:35:13;;;;;;;33.37;7.10;;;6.00;99.90;;;;;;5036391;28;20064;-87
2023/01/14 07:37:39;;;;;;;26.73;6.57;;;6.10;99.90;;;;;;5036605;28;20045;-89
2023/01/14 07:40:05;;;;;;;28.23;7.80;;;6.10;99.90;;;;;;5003651;28;20040;-87
2023/01/14 07:42:31;;;;;;;24.80;6.60;;;6.10;99.90;;;;;;5015164;28;20045;-87
2023/01/14 07:44:57;;;;;;;25.37;6.47;;;6.10;99.90;;;;;;5028156;28;20106;-87
2023/01/14 07:47:22;;;;;;;30.87;6.80;;;6.20;99.90;;;;;;5028690;28;20094;-87
2023/01/14 07:49:48;;;;;;;22.13;5.90;;;6.20;99.90;;;;;;5020221;28;20037;-87
2023/01/14 07:52:14;;;;;;;30.97;7.03;;;6.10;99.90;;;;;;5034794;28;20044;-87
2023/01/14 07:54:43;;;;;;;27.43;7.20;;;6.10;99.90;;;;;;5018955;28;20063;-88
2023/01/14 07:57:10;;;;;;;30.87;6.43;;;6.20;99.90;;;;;;5019369;28;20542;-87
2023/01/14 07:59:37;;;;;;;29.60;5.80;;;6.20;99.90;;;;;;5031614;28;20045;-88
2023/01/14 08:02:03;;;;;;;20.57;6.23;;;6.20;99.90;;;;;;5029749;28;20542;-88
2023/01/14 08:04:29;;;;;;;24.70;6.03;;;6.20;99.90;;;;;;5029005;28;20095;-88
2023/01/14 08:06:58;;;;;;;20.10;5.80;;;6.30;99.90;;;;;;5018920;28;20044;-89
2023/01/14 08:09:25;;;;;;;29.77;6.10;;;6.20;99.90;;;;;;5035364;28;20033;-87
2023/01/14 08:11:51;;;;;;;21.23;5.67;;;6.30;99.90;;;;;;5043107;28;20073;-88
2023/01/14 08:14:17;;;;;;;25.77;6.40;;;6.30;99.90;;;;;;5016489;28;20042;-87
2023/01/14 08:16:42;;;;;;;31.17;7.00;;;6.30;99.90;;;;;;5002944;28;20108;-88
2023/01/14 08:19:10;;;;;;;28.30;6.33;;;6.30;99.90;;;;;;5003340;28;20135;-88
2023/01/14 08:21:35;;;;;;;23.67;5.30;;;6.30;99.90;;;;;;5017991;28;20072;-87
2023/01/14 08:24:01;;;;;;;25.73;5.47;;;6.30;99.90;;;;;;5002140;28;20068;-89
2023/01/14 08:26:27;;;;;;;29.03;5.83;;;6.40;99.90;;;;;;5018763;28;20361;-90
2023/01/14 08:28:52;;;;;;;26.00;6.13;;;6.40;99.90;;;;;;5033423;28;20114;-88
2023/01/14 08:31:18;;;;;;;26.33;5.17;;;6.40;99.90;;;;;;5018551;28;20033;-87
2023/01/14 08:33:45;;;;;;;29.20;5.77;;;6.40;99.90;;;;;;5004550;28;20037;-88
2023/01/14 08:36:13;;;;;;;32.27;6.00;;;6.40;99.90;;;;;;5034808;28;20041;-87
2023/01/14 08:38:40;;;;;;;21.70;5.40;;;6.40;99.90;;;;;;5052437;28;20049;-88
2023/01/14 08:41:11;;;;;;;27.23;5.63;;;6.40;99.90;;;;;;5019512;28;20493;-90
2023/01/14 08:43:38;;;;;;;22.77;6.60;;;6.40;99.90;;;;;;5003149;28;20094;-88
2023/01/14 08:46:05;;;;;;;23.10;5.27;;;6.40;99.90;;;;;;5018670;28;20041;-89
2023/01/14 08:48:31;;;;;;;21.77;5.10;;;6.40;99.90;;;;;;5003070;28;20124;-89
2023/01/14 08:51:02;;;;;;;23.13;5.13;;;6.40;99.90;;;;;;5035597;28;20171;-89
2023/01/14 08:53:29;;;;;;;25.23;5.47;;;6.40;99.90;;;;;;5018551;28;20045;-87
2023/01/14 08:55:59;;;;;;;23.17;5.90;;;6.40;99.90;;;;;;5018709;28;20124;-87
2023/01/14 08:58:26;;;;;;;25.87;5.77;;;6.40;99.90;;;;;;5024325;28;20388;-88
2023/01/14 09:01:00;;;;;;;30.63;5.83;;;6.40;99.90;;;;;;5034967;28;20139;-87
2023/01/14 09:03:29;;;;;;;24.27;5.97;;;6.40;99.90;;;;;;5031421;28;20060;-87
2023/01/14 09:06:00;;;;;;;24.23;5.93;;;6.40;99.90;;;;;;5032257;28;20045;-88
2023/01/14 09:19:27;;;;;;;25.63;6.20;;;6.40;99.90;;;;;;5019712;28;20048;-86
2023/01/14 09:21:53;;;;;;;23.53;5.27;;;6.40;99.90;;;;;;5012057;28;20439;-87
2023/01/14 09:24:19;;;;;;;20.97;5.00;;;6.40;99.90;;;;;;5023263;28;20045;-88
2023/01/14 09:26:44;;;;;;;25.70;6.10;;;6.30;99.90;;;;;;5029850;28;20099;-87
2023/01/14 09:29:10;;;;;;;19.47;5.33;;;6.40;99.90;;;;;;5022887;28;20072;-88
2023/01/14 09:31:36;;;;;;;22.67;5.53;;;6.40;99.90;;;;;;5023357;28;20048;-87
2023/01/14 09:34:01;;;;;;;25.20;6.57;;;6.40;99.90;;;;;;4995581;28;20551;-86
2023/01/14 09:36:29;;;;;;;21.13;5.33;;;6.40;99.90;;;;;;5040198;28;20047;-88
2023/01/14 09:38:55;;;;;;;18.70;5.67;;;6.40;99.90;;;;;;5016368;28;20736;-89
2023/01/14 09:41:36;;;;;;;21.27;5.17;;;6.40;99.90;;;;;;5023119;28;20047;-88
2023/01/14 09:44:05;;;;;;;19.80;4.97;;;6.40;99.90;;;;;;5022971;28;20041;-88
2023/01/14 09:46:31;;;;;;;22.13;4.70;;;6.50;99.90;;;;;;5023140;28;20040;-88
2023/01/14 09:49:01;;;;;;;17.87;4.47;;;6.40;99.90;;;;;;5022902;28;20048;-90
2023/01/14 09:51:42;;;;;;;29.50;5.40;;;6.40;99.90;;;;;;5022234;28;20044;-89
2023/01/14 09:54:25;;;;;;;16.00;4.13;;;6.50;99.90;;;;;;5055949;28;20036;-90
2023/01/14 09:57:11;;;;;;;15.60;4.53;;;6.50;99.90;;;;;;5035671;28;20045;-89
2023/01/14 09:59:46;;;;;;;15.97;4.27;;;6.50;99.90;;;;;;5030884;28;20034;-88
2023/01/14 10:02:23;;;;;;;18.30;4.53;;;6.50;99.90;;;;;;5019048;28;20045;-88
2023/01/14 10:05:05;;;;;;;13.40;3.73;;;6.50;99.90;;;;;;5002595;28;20835;-89
2023/01/14 10:07:33;;;;;;;13.67;4.17;;;6.60;99.90;;;;;;5019062;28;20519;-90
2023/01/14 10:10:00;;;;;;;15.03;4.50;;;6.50;99.90;;;;;;5009938;28;20282;-88
2023/01/14 10:12:38;;;;;;;13.33;4.60;;;6.60;99.90;;;;;;5034056;28;20055;-90
2023/01/14 10:15:17;;;;;;;9.33;3.67;;;6.60;99.90;;;;;;5023055;28;20090;-89
2023/01/14 10:17:48;;;;;;;12.00;3.60;;;6.60;99.90;;;;;;5022235;28;20036;-88
2023/01/14 10:20:35;;;;;;;14.15;4.28;;;6.60;99.90;;;;;;5022156;28;20518;-89
2023/01/14 10:23:16;;;;;;;11.37;3.97;;;6.70;99.90;;;;;;5018595;28;20041;-90
2023/01/14 10:25:49;;;;;;;18.15;5.45;;;6.70;99.90;;;;;;5029326;28;20370;-88
2023/01/14 10:28:17;;;;;;;12.13;4.07;;;6.70;99.90;;;;;;5039081;28;20385;-89
2023/01/14 10:30:44;;;;;;;10.53;4.20;;;6.70;99.90;;;;;;5038398;28;20044;-89
2023/01/14 10:33:14;;;;;;;11.77;4.47;;;6.70;99.90;;;;;;5055247;28;20053;-90
2023/01/14 10:35:44;;;;;;;12.73;4.00;;;6.80;99.90;;;;;;5049482;28;20045;-88
2023/01/14 10:38:17;;;;;;;12.13;4.57;;;6.80;99.90;;;;;;5028327;28;20047;-89
2023/01/14 10:40:44;;;;;;;12.03;4.33;;;6.80;99.90;;;;;;5025183;28;20044;-88
2023/01/14 10:43:37;;;;;;;10.77;4.17;;;6.80;99.90;;;;;;5021394;28;20132;-89
2023/01/14 10:46:03;;;;;;;8.70;3.97;;;6.80;99.90;;;;;;5010906;28;20045;-88
2023/01/14 10:48:49;;;;;;;12.17;4.20;;;6.90;99.90;;;;;;5026207;28;20041;-89
2023/01/14 10:51:33;;;;;;;7.40;4.40;;;6.90;99.90;;;;;;5034245;28;20042;-89
2023/01/14 10:54:08;;;;;;;8.83;3.57;;;7.00;99.90;;;;;;5034646;28;20041;-89
2023/01/14 10:56:34;;;;;;;8.83;3.73;;;7.00;99.90;;;;;;5037027;28;20084;-89
2023/01/14 10:59:00;;;;;;;10.20;4.30;;;7.00;99.90;;;;;;5026031;28;20065;-87
2023/01/14 11:01:26;;;;;;;10.20;3.70;;;7.00;99.90;;;;;;5021465;28;20094;-89
2023/01/14 11:03:55;;;;;;;9.13;3.50;;;7.10;99.90;;;;;;5021310;28;20040;-88
2023/01/14 11:06:20;;;;;;;7.63;4.20;;;7.10;99.90;;;;;;5005652;28;20099;-87
2023/01/14 11:08:46;;;;;;;6.77;3.80;;;7.10;99.90;;;;;;5004658;28;20037;-87
2023/01/14 11:11:16;;;;;;;7.73;3.80;;;7.20;99.90;;;;;;5034851;28;20061;-89
2023/01/14 11:13:44;;;;;;;9.37;3.70;;;7.20;99.90;;;;;;5001044;28;20493;-88
2023/01/14 11:16:28;;;;;;;10.17;4.10;;;7.30;99.90;;;;;;5031068;28;20044;-87
2023/01/14 11:18:55;;;;;;;8.27;3.50;;;7.30;99.90;;;;;;5020471;28;20052;-88
2023/01/14 11:21:23;;;;;;;7.20;3.30;;;7.30;99.90;;;;;;5036798;28;20048;-89
2023/01/14 11:24:21;;;;;;;7.57;3.50;;;7.40;99.90;;;;;;5019926;28;20037;-88
2023/01/14 11:26:47;;;;;;;6.00;3.13;;;7.30;99.90;;;;;;5020803;28;20037;-88
2023/01/14 11:29:12;;;;;;;6.13;3.20;;;7.30;99.90;;;;;;5020176;28;20131;-88
2023/01/14 11:31:39;;;;;;;6.87;3.40;;;7.30;99.90;;;;;;5037334;28;20044;-88
2023/01/14 11:34:18;;;;;;;8.67;3.20;;;7.40;99.90;;;;;;5003886;28;20033;-88
2023/01/14 11:36:44;;;;;;;6.57;3.13;;;7.40;99.90;;;;;;5035652;28;20386;-89
2023/01/14 11:39:16;;;;;;;6.63;2.90;;;7.40;99.90;;;;;;5036381;28;20036;-88
2023/01/14 11:41:42;;;;;;;6.47;2.70;;;7.40;99.90;;;;;;5036727;28;20033;-88
2023/01/14 11:44:13;;;;;;;6.03;2.83;;;7.40;99.90;;;;;;5027314;28;20384;-88
2023/01/14 11:46:43;;;;;;;5.88;2.85;;;7.40;99.90;;;;;;5021376;28;20699;-88
2023/01/14 11:49:19;;;;;;;8.37;2.70;;;7.40;99.90;;;;;;5019286;28;20479;-89
2023/01/14 11:52:02;;;;;;;6.03;2.83;;;7.40;99.90;;;;;;5006927;28;20048;-87
2023/01/14 11:54:41;;;;;;;6.03;2.97;;;7.40;99.90;;;;;;5019629;28;20044;-87
2023/01/14 11:57:18;;;;;;;6.50;2.70;;;7.50;99.90;;;;;;5034997;28;20036;-90
2023/01/14 11:59:45;;;;;;;3.90;2.27;;;7.40;99.90;;;;;;5052610;28;20393;-90
2023/01/14 12:02:26;;;;;;;4.90;2.50;;;7.50;99.90;;;;;;5036555;28;20037;-90
2023/01/14 12:05:12;;;;;;;8.03;2.43;;;7.50;99.90;;;;;;5016626;28;20041;-89
2023/01/14 12:07:46;;;;;;;3.90;2.43;;;7.50;99.90;;;;;;5023561;28;20037;-88
2023/01/14 12:10:39;;;;;;;6.17;2.40;;;7.50;99.90;;;;;;5022461;28;20041;-88
2023/01/14 12:19:40;;;;;;;7.33;2.50;;;7.50;99.90;;;;;;5033018;28;20045;-87
2023/01/14 12:22:15;;;;;;;8.53;2.57;;;7.60;99.90;;;;;;4999265;28;20098;-89
2023/01/14 12:25:17;;;;;;;5.97;2.40;;;7.60;99.90;;;;;;5000329;28;20049;-89
2023/01/14 12:28:01;;;;;;;6.13;2.53;;;7.60;99.90;;;;;;5013242;28;20046;-89
2023/01/14 12:30:49;;;;;;;5.17;2.60;;;7.60;99.90;;;;;;5032336;28;20121;-91
2023/01/14 12:33:21;;;;;;;5.17;2.20;;;7.60;99.90;;;;;;5027957;28;20046;-89
2023/01/14 12:35:59;;;;;;;2.73;2.07;;;7.60;99.90;;;;;;5015627;28;20041;-89
2023/01/14 12:47:10;;;;;;;6.73;2.10;;;7.70;99.90;;;;;;5012693;28;20453;-89
2023/01/14 12:49:37;;;;;;;6.10;2.20;;;7.80;99.90;;;;;;5012644;28;20103;-87
2023/01/14 12:52:04;;;;;;;3.13;2.00;;;7.80;99.90;;;;;;5015750;28;20504;-88
2023/01/14 12:54:34;;;;;;;4.87;2.20;;;7.80;99.90;;;;;;5015869;28;20045;-90
2023/01/14 12:57:02;;;;;;;3.57;1.97;;;7.90;99.90;;;;;;5048315;28;20041;-86
2023/01/14 12:59:31;;;;;;;6.67;2.57;;;7.90;99.90;;;;;;5012430;28;20033;-88
2023/01/14 13:02:19;;;;;;;3.77;2.17;;;7.90;99.90;;;;;;5032299;28;20048;-89
2023/01/14 13:04:59;;;;;;;4.10;2.03;;;8.00;99.90;;;;;;5032531;28;20034;-89
2023/01/14 13:07:32;;;;;;;5.37;2.00;;;8.00;99.90;;;;;;5015716;28;20042;-88
2023/01/14 13:10:02;;;;;;;3.20;1.90;;;8.00;99.90;;;;;;5032556;28;20042;-89
2023/01/14 13:12:30;;;;;;;4.20;2.30;;;8.10;99.90;;;;;;5023865;28;20054;-87
2023/01/14 13:15:21;;;;;;;3.27;2.17;;;8.10;99.90;;;;;;5008500;28;20116;-88
2023/01/14 13:17:56;;;;;;;3.27;2.03;;;8.10;99.90;;;;;;4992307;28;20134;-87
2023/01/14 13:20:35;;;;;;;5.40;2.30;;;8.10;99.90;;;;;;4986401;28;20042;-88
2023/01/14 13:23:03;;;;;;;4.10;1.80;;;8.20;99.90;;;;;;5011768;28;20057;-88
2023/01/14 13:25:34;;;;;;;3.97;2.03;;;8.20;99.90;;;;;;4984183;28;20038;-89
2023/01/14 13:28:20;;;;;;;3.67;2.00;;;8.20;99.90;;;;;;5011789;28;20046;-86
2023/01/14 13:31:01;;;;;;;4.53;2.10;;;8.30;99.90;;;;;;4994765;28;20052;-91
2023/01/14 13:33:37;;;;;;;3.28;1.80;;;8.30;99.90;;;;;;5012571;28;20081;-86
2023/01/14 13:36:06;;;;;;;2.40;1.70;;;8.30;99.90;;;;;;4991904;28;20041;-89
2023/01/14 13:38:34;;;;;;;5.67;2.10;;;8.30;99.90;;;;;;5012332;28;20050;-88
2023/01/14 13:41:09;;;;;;;2.77;1.80;;;8.40;99.90;;;;;;4976702;28;20042;-87
2023/01/14 13:43:39;;;;;;;3.67;1.70;;;8.40;99.90;;;;;;4976846;28;20046;-89
2023/01/14 13:46:13;;;;;;;4.17;1.60;;;8.50;99.90;;;;;;5012143;28;20100;-89